createdAt,value
2023-04-01T00:00:36.063Z,6.88
2023-04-01T00:03:04.337Z,6.89
2023-04-01T00:05:34.023Z,6.75
2023-04-01T00:08:02.134Z,6.95
2023-04-01T00:10:30.078Z,6.97
2023-04-01T00:12:57.953Z,6.91
2023-04-01T00:15:25.745Z,6.90
2023-04-01T00:17:53.947Z,6.89
2023-04-01T00:20:22.193Z,6.90
2023-04-01T00:22:51.441Z,6.90
2023-04-01T00:25:19.583Z,6.87
2023-04-01T00:27:47.692Z,6.88
2023-04-01T00:30:16.410Z,6.92
2023-04-01T00:32:44.513Z,6.91
2023-04-01T00:35:13.523Z,6.91
2023-04-01T00:37:41.413Z,6.80
2023-04-01T00:40:25.454Z,6.83
2023-04-01T00:42:55.939Z,6.81
2023-04-01T00:45:42.777Z,6.81
2023-04-01T00:48:13.658Z,6.81
2023-04-01T00:50:44.290Z,6.82
2023-04-01T00:53:12.993Z,6.83
2023-04-01T00:55:48.255Z,6.84
2023-04-01T00:58:19.115Z,6.97
2023-04-01T01:00:50.317Z,6.93
2023-04-01T01:03:18.399Z,7.01
2023-04-01T01:06:09.303Z,7.02
2023-04-01T01:08:54.737Z,7.07
2023-04-01T01:11:37.069Z,7.11
2023-04-01T01:14:21.563Z,7.14
2023-04-01T01:16:57.577Z,7.19
2023-04-01T01:19:54.091Z,7.12
2023-04-01T01:22:38.446Z,7.12
2023-04-01T01:25:27.968Z,7.20
2023-04-01T01:28:10.734Z,7.26
2023-04-01T01:30:45.017Z,7.18
2023-04-01T01:33:47.500Z,7.21
2023-04-01T01:36:19.312Z,7.17
2023-04-01T01:38:48.191Z,7.14
2023-04-01T01:41:18.686Z,7.13
2023-04-01T01:43:50.961Z,7.06
2023-04-01T01:46:23.222Z,7.08
2023-04-01T01:48:53.050Z,7.06
2023-04-01T01:51:24.827Z,7.12
2023-04-01T01:53:52.792Z,7.12
2023-04-01T01:56:26.100Z,7.11
2023-04-01T01:58:58.643Z,7.17
2023-04-01T02:01:28.898Z,7.10
2023-04-01T02:04:01.432Z,7.25
2023-04-01T02:06:34.491Z,7.19
2023-04-01T02:09:05.032Z,7.18
2023-04-01T02:11:38.236Z,7.18
2023-04-01T02:14:09.620Z,7.21
2023-04-01T02:16:43.507Z,7.27
2023-04-01T02:19:14.340Z,7.15
2023-04-01T02:21:45.340Z,7.16
2023-04-01T02:24:16.792Z,7.22
2023-04-01T02:26:46.751Z,7.23
2023-04-01T02:29:15.416Z,7.22
2023-04-01T02:31:44.684Z,7.26
2023-04-01T02:34:13.192Z,7.26
2023-04-01T02:36:40.996Z,7.24
2023-04-01T02:39:10.918Z,7.24
2023-04-01T02:41:41.941Z,7.17
2023-04-01T02:44:10.946Z,7.21
2023-04-01T02:46:39.198Z,7.11
2023-04-01T02:49:07.791Z,7.12
2023-04-01T02:51:36.152Z,7.11
2023-04-01T02:54:04.580Z,7.14
2023-04-01T02:56:33.779Z,7.09
2023-04-01T02:59:01.757Z,7.13
2023-04-01T03:01:29.704Z,7.07
2023-04-01T03:03:57.563Z,7.04
2023-04-01T03:06:25.475Z,7.00
2023-04-01T03:08:53.351Z,6.93
2023-04-01T03:11:22.160Z,6.92
2023-04-01T03:13:51.447Z,6.97
2023-04-01T03:16:19.405Z,6.93
2023-04-01T03:18:47.249Z,7.01
2023-04-01T03:21:19.529Z,6.94
2023-04-01T03:23:47.509Z,6.96
2023-04-01T03:26:15.705Z,6.95
2023-04-01T03:28:44.131Z,6.87
2023-04-01T03:31:13.676Z,6.79
2023-04-01T03:33:48.468Z,6.74
2023-04-01T03:36:16.601Z,6.69
2023-04-01T03:38:45.540Z,6.65
2023-04-01T03:41:18.152Z,6.63
2023-04-01T03:43:46.212Z,6.62
2023-04-01T03:46:19.399Z,6.66
2023-04-01T03:48:48.252Z,6.65
2023-04-01T03:51:16.373Z,6.66
2023-04-01T03:53:44.216Z,6.70
2023-04-01T03:56:12.576Z,6.62
2023-04-01T03:58:40.803Z,6.60
2023-04-01T04:01:20.018Z,6.54
2023-04-01T04:03:50.252Z,6.47
2023-04-01T04:06:19.154Z,6.49
2023-04-01T04:08:47.226Z,6.51
2023-04-01T04:11:16.084Z,6.53
2023-04-01T04:13:44.958Z,6.45
2023-04-01T04:16:13.265Z,6.53
2023-04-01T04:18:47.033Z,6.59
2023-04-01T04:21:16.068Z,6.64
2023-04-01T04:23:44.933Z,6.71
2023-04-01T04:26:17.088Z,6.67
2023-04-01T04:28:50.468Z,6.67
2023-04-01T04:31:21.837Z,6.64
2023-04-01T04:33:52.535Z,6.60
2023-04-01T04:36:21.477Z,6.59
2023-04-01T04:38:51.404Z,6.59
2023-04-01T04:41:23.019Z,6.62
2023-04-01T04:43:54.319Z,6.62
2023-04-01T04:46:24.123Z,6.66
2023-04-01T04:48:58.833Z,6.71
2023-04-01T04:51:28.130Z,6.67
2023-04-01T04:53:56.109Z,6.78
2023-04-01T04:56:34.254Z,6.77
2023-04-01T04:59:07.445Z,6.89
2023-04-01T05:01:44.202Z,6.90
2023-04-01T05:04:13.588Z,6.96
2023-04-01T05:06:41.436Z,7.01
2023-04-01T05:09:09.349Z,7.08
2023-04-01T05:11:37.586Z,7.11
2023-04-01T05:14:05.463Z,7.15
2023-04-01T05:16:33.938Z,7.25
2023-04-01T05:19:01.878Z,7.24
2023-04-01T05:21:31.106Z,7.24
2023-04-01T05:23:59.409Z,7.25
2023-04-01T05:26:27.935Z,7.23
2023-04-01T05:28:55.793Z,7.21
2023-04-01T05:31:25.114Z,7.21
2023-04-01T05:33:54.491Z,7.19
2023-04-01T05:36:22.472Z,7.24
2023-04-01T05:38:51.717Z,7.30
2023-04-01T05:41:20.977Z,7.29
2023-04-01T05:43:49.454Z,7.29
2023-04-01T05:46:46.113Z,7.25
2023-04-01T05:49:27.602Z,7.31
2023-04-01T05:51:57.097Z,7.31
2023-04-01T05:54:26.237Z,7.34
2023-04-01T05:56:54.395Z,7.35
2023-04-01T05:59:22.501Z,7.38
2023-04-01T06:01:50.359Z,7.76
2023-04-01T06:04:20.240Z,7.73
2023-04-01T06:06:48.154Z,7.74
2023-04-01T06:09:18.496Z,7.67
2023-04-01T06:12:27.137Z,7.49
2023-04-01T06:15:12.765Z,7.53
2023-04-01T06:17:54.775Z,7.48
2023-04-01T06:20:32.304Z,7.48
2023-04-01T06:23:17.718Z,7.57
2023-04-01T06:25:56.591Z,7.53
2023-04-01T06:28:54.204Z,7.62
2023-04-01T06:31:36.628Z,7.64
2023-04-01T06:34:46.280Z,7.71
2023-04-01T06:37:29.911Z,7.74
2023-04-01T06:40:14.503Z,7.72
2023-04-01T06:42:51.618Z,7.75
2023-04-01T06:45:55.683Z,7.79
2023-04-01T06:48:55.548Z,7.86
2023-04-01T06:51:53.633Z,8.02
2023-04-01T06:54:43.170Z,8.14
2023-04-01T06:57:36.250Z,8.27
2023-04-01T07:00:15.143Z,8.31
2023-04-01T07:02:49.543Z,8.37
2023-04-01T07:05:17.987Z,8.39
2023-04-01T07:07:49.446Z,8.46
2023-04-01T07:10:21.861Z,8.46
2023-04-01T07:13:14.789Z,8.37
2023-04-01T07:16:07.240Z,8.26
2023-04-01T07:18:46.461Z,8.36
2023-04-01T07:21:24.087Z,8.46
2023-04-01T07:23:55.976Z,8.55
2023-04-01T07:27:00.413Z,8.64
2023-04-01T07:29:32.258Z,8.66
2023-04-01T07:32:24.278Z,8.45
2023-04-01T07:35:04.377Z,8.53
2023-04-01T07:37:40.545Z,8.48
2023-04-01T07:40:23.851Z,8.63
2023-04-01T07:43:07.691Z,8.75
2023-04-01T07:45:44.454Z,9.02
2023-04-01T07:48:22.612Z,9.09
2023-04-01T07:51:01.313Z,9.11
2023-04-01T07:53:36.280Z,9.24
2023-04-01T07:56:10.218Z,9.36
2023-04-01T07:58:52.223Z,9.43
2023-04-01T08:01:46.340Z,9.50
2023-04-01T08:04:31.549Z,9.65
2023-04-01T08:07:10.242Z,9.47
2023-04-01T08:09:50.586Z,9.46
2023-04-01T08:12:51.112Z,9.42
2023-04-01T08:15:43.753Z,9.68
2023-04-01T08:18:30.702Z,9.81
2023-04-01T08:21:01.822Z,9.83
2023-04-01T08:23:34.609Z,9.72
2023-04-01T08:26:07.066Z,9.71
2023-04-01T08:28:43.557Z,9.60
2023-04-01T08:31:17.081Z,9.57
2023-04-01T08:33:48.268Z,9.85
2023-04-01T08:36:19.275Z,10.34
2023-04-01T08:38:59.606Z,10.03
2023-04-01T08:41:56.155Z,9.95
2023-04-01T08:45:11.963Z,10.33
2023-04-01T08:47:48.497Z,10.39
2023-04-01T08:50:31.739Z,10.32
2023-04-01T08:53:18.513Z,10.30
2023-04-01T08:55:58.200Z,10.44
2023-04-01T08:58:50.402Z,10.78
2023-04-01T09:01:53.695Z,11.31
2023-04-01T09:05:04.418Z,11.17
2023-04-01T09:07:42.883Z,11.16
2023-04-01T09:10:46.914Z,10.66
2023-04-01T09:14:06.717Z,10.73
2023-04-01T09:17:10.974Z,11.19
2023-04-01T09:19:54.451Z,11.35
2023-04-01T09:22:34.991Z,11.67
2023-04-01T09:25:20.439Z,11.13
2023-04-01T09:27:58.267Z,11.28
2023-04-01T09:30:50.649Z,11.75
2023-04-01T09:33:48.603Z,11.63
2023-04-01T09:36:35.313Z,11.04
2023-04-01T09:39:26.380Z,11.12
2023-04-01T09:42:08.935Z,11.13
2023-04-01T09:44:51.234Z,11.13
2023-04-01T09:47:36.227Z,11.36
2023-04-01T09:50:28.838Z,11.18
2023-04-01T09:53:07.322Z,11.20
2023-04-01T09:56:06.919Z,11.36
2023-04-01T09:59:11.978Z,11.27
2023-04-01T10:02:35.450Z,11.61
2023-04-01T10:05:36.758Z,11.65
2023-04-01T10:08:33.596Z,11.53
2023-04-01T10:11:40.476Z,11.49
2023-04-01T10:14:40.082Z,11.36
2023-04-01T10:17:55.933Z,11.56
2023-04-01T10:20:59.303Z,11.81
2023-04-01T10:24:02.880Z,11.85
2023-04-01T10:26:55.807Z,11.80
2023-04-01T10:30:36.672Z,11.80
2023-04-01T10:33:37.559Z,11.58
2023-04-01T10:36:32.284Z,11.55
2023-04-01T10:39:26.159Z,11.52
2023-04-01T10:42:26.754Z,11.45
2023-04-01T10:45:40.352Z,11.14
2023-04-01T10:48:33.787Z,10.92
2023-04-01T10:51:37.956Z,10.92
2023-04-01T10:54:23.127Z,10.70
2023-04-01T10:57:42.838Z,10.87
2023-04-01T11:00:53.339Z,10.59
2023-04-01T11:04:14.626Z,10.48
2023-04-01T11:07:44.010Z,10.30
2023-04-01T11:10:46.775Z,10.07
2023-04-01T11:13:49.640Z,10.03
2023-04-01T11:16:54.795Z,10.03
2023-04-01T11:19:52.050Z,10.02
2023-04-01T11:23:10.018Z,10.06
2023-04-01T11:25:58.990Z,10.08
2023-04-01T11:29:21.250Z,10.13
2023-04-01T11:32:00.003Z,9.90
2023-04-01T11:34:45.315Z,9.80
2023-04-01T11:37:29.163Z,9.79
2023-04-01T11:40:28.298Z,9.88
2023-04-01T11:43:38.227Z,9.94
2023-04-01T11:46:34.290Z,9.46
2023-04-01T11:49:18.897Z,9.17
2023-04-01T11:52:14.345Z,9.32
2023-04-01T11:55:09.204Z,9.08
2023-04-01T11:57:58.905Z,8.98
2023-04-01T12:00:45.158Z,8.58
2023-04-01T12:03:31.833Z,8.48
2023-04-01T12:06:07.371Z,8.34
2023-04-01T12:08:47.649Z,8.46
2023-04-01T12:11:24.863Z,8.42
2023-04-01T12:14:02.428Z,8.23
2023-04-01T12:16:53.628Z,8.31
2023-04-01T12:19:28.427Z,8.51
2023-04-01T12:22:13.751Z,8.34
2023-04-01T12:24:49.940Z,8.43
2023-04-01T12:27:43.585Z,8.35
2023-04-01T12:30:35.262Z,8.30
2023-04-01T12:33:20.921Z,8.12
2023-04-01T12:36:00.417Z,8.20
2023-04-01T12:38:38.483Z,8.18
2023-04-01T12:41:19.966Z,8.20
2023-04-01T12:44:26.091Z,8.31
2023-04-01T12:47:13.594Z,8.21
2023-04-01T12:50:10.487Z,8.26
2023-04-01T12:52:54.015Z,8.33
2023-04-01T12:55:43.218Z,8.46
2023-04-01T12:58:43.377Z,8.30
2023-04-01T13:01:42.646Z,8.22
2023-04-01T13:05:13.592Z,8.23
2023-04-01T13:07:59.662Z,8.24
2023-04-01T13:10:40.769Z,8.26
2023-04-01T13:13:34.501Z,8.33
2023-04-01T13:16:11.140Z,8.24
2023-04-01T13:18:56.980Z,8.16
2023-04-01T13:21:37.160Z,8.09
2023-04-01T13:24:15.968Z,8.01
2023-04-01T13:26:55.843Z,7.99
2023-04-01T13:29:28.568Z,7.85
2023-04-01T13:32:08.034Z,7.88
2023-04-01T13:34:48.908Z,7.72
2023-04-01T13:37:29.460Z,7.68
2023-04-01T13:40:22.150Z,7.66
2023-04-01T13:42:55.517Z,7.75
2023-04-01T13:45:46.787Z,7.71
2023-04-01T13:48:51.278Z,7.87
2023-04-01T13:51:46.201Z,8.06
2023-04-01T13:54:47.236Z,8.04
2023-04-01T13:57:43.894Z,8.07
2023-04-01T14:00:40.939Z,8.15
2023-04-01T14:03:29.092Z,8.24
2023-04-01T14:06:08.672Z,8.38
2023-04-01T14:08:58.319Z,8.35
2023-04-01T14:11:34.646Z,8.23
2023-04-01T14:14:16.936Z,8.18
2023-04-01T14:17:03.640Z,8.10
2023-04-01T14:19:51.967Z,8.15
2023-04-01T14:22:30.350Z,8.28
2023-04-01T14:25:23.596Z,8.41
2023-04-01T14:28:02.583Z,8.46
2023-04-01T14:31:01.434Z,8.36
2023-04-01T14:33:44.152Z,8.49
2023-04-01T14:36:37.143Z,8.68
2023-04-01T14:39:22.198Z,8.45
2023-04-01T14:41:57.035Z,8.49
2023-04-01T14:44:46.888Z,8.36
2023-04-01T14:47:36.715Z,8.27
2023-04-01T14:50:11.578Z,8.33
2023-04-01T14:52:44.197Z,8.19
2023-04-01T14:55:35.267Z,8.21
2023-04-01T14:58:11.638Z,8.18
2023-04-01T15:00:49.544Z,8.23
2023-04-01T15:03:24.134Z,8.21
2023-04-01T15:05:57.034Z,8.28
2023-04-01T15:08:28.580Z,8.38
2023-04-01T15:11:25.778Z,8.49
2023-04-01T15:14:28.164Z,8.63
2023-04-01T15:17:10.408Z,8.69
2023-04-01T15:19:58.590Z,8.83
2023-04-01T15:22:40.722Z,9.00
2023-04-01T15:25:26.850Z,9.07
2023-04-01T15:28:01.533Z,9.03
2023-04-01T15:30:37.296Z,9.03
2023-04-01T15:33:20.132Z,9.15
2023-04-01T15:35:58.559Z,9.27
2023-04-01T15:38:35.158Z,9.37
2023-04-01T15:41:11.337Z,9.33
2023-04-01T15:43:44.829Z,9.35
2023-04-01T15:46:32.754Z,9.23
2023-04-01T15:49:17.172Z,9.32
2023-04-01T15:52:17.705Z,9.33
2023-04-01T15:55:06.193Z,9.41
2023-04-01T15:57:41.548Z,9.37
2023-04-01T16:00:28.673Z,9.41
2023-04-01T16:03:20.032Z,9.49
2023-04-01T16:06:04.039Z,9.54
2023-04-01T16:08:48.917Z,9.54
2023-04-01T16:11:29.786Z,9.48
2023-04-01T16:14:09.248Z,9.40
2023-04-01T16:16:50.584Z,9.39
2023-04-01T16:19:46.691Z,9.35
2023-04-01T16:22:18.949Z,9.23
2023-04-01T16:24:53.332Z,9.26
2023-04-01T16:27:30.720Z,9.23
2023-04-01T16:30:05.145Z,9.55
2023-04-01T16:32:43.385Z,9.43
2023-04-01T16:35:30.641Z,9.49
2023-04-01T16:38:07.724Z,9.43
2023-04-01T16:40:44.874Z,9.34
2023-04-01T16:43:21.581Z,9.19
2023-04-01T16:45:57.706Z,9.07
2023-04-01T16:48:36.276Z,9.03
2023-04-01T16:51:12.456Z,8.95
2023-04-01T16:53:45.030Z,8.92
2023-04-01T16:56:22.291Z,8.94
2023-04-01T16:59:03.523Z,8.94
2023-04-01T17:01:43.160Z,8.90
2023-04-01T17:04:21.605Z,8.91
2023-04-01T17:06:56.095Z,8.85
2023-04-01T17:09:39.961Z,8.84
2023-04-01T17:12:15.816Z,8.80
2023-04-01T17:14:54.373Z,8.81
2023-04-01T17:17:46.154Z,8.76
2023-04-01T17:20:33.782Z,8.81
2023-04-01T17:23:03.664Z,8.71
2023-04-01T17:25:54.416Z,8.78
2023-04-01T17:28:37.333Z,8.75
2023-04-01T17:31:13.112Z,8.80
2023-04-01T17:34:11.738Z,8.67
2023-04-01T17:36:53.799Z,8.66
2023-04-01T17:39:40.070Z,8.77
2023-04-01T17:42:13.368Z,8.72
2023-04-01T17:45:00.225Z,8.72
2023-04-01T17:47:47.258Z,8.71
2023-04-01T17:50:27.084Z,8.65
2023-04-01T17:53:08.284Z,8.66
2023-04-01T17:55:55.681Z,8.63
2023-04-01T17:58:30.507Z,8.55
2023-04-01T18:01:13.637Z,8.66
2023-04-01T18:03:57.870Z,8.68
2023-04-01T18:06:37.240Z,8.64
2023-04-01T18:09:15.827Z,8.64
2023-04-01T18:11:55.407Z,8.63
2023-04-01T18:15:07.384Z,8.52
2023-04-01T18:17:48.247Z,8.50
2023-04-01T18:20:36.108Z,8.42
2023-04-01T18:23:11.322Z,8.41
2023-04-01T18:25:42.890Z,8.40
2023-04-01T18:28:28.642Z,8.32
2023-04-01T18:31:06.847Z,8.24
2023-04-01T18:33:44.804Z,8.17
2023-04-01T18:36:20.735Z,8.15
2023-04-01T18:38:54.178Z,8.07
2023-04-01T18:41:30.963Z,7.98
2023-04-01T18:44:09.702Z,8.01
2023-04-01T18:46:43.232Z,7.98
2023-04-01T18:49:22.782Z,7.92
2023-04-01T18:51:56.934Z,7.93
2023-04-01T18:54:29.355Z,7.98
2023-04-01T18:57:06.829Z,7.93
2023-04-01T18:59:39.038Z,7.89
2023-04-01T19:02:18.065Z,7.91
2023-04-01T19:04:52.771Z,7.90
2023-04-01T19:07:43.724Z,7.92
2023-04-01T19:10:28.470Z,7.90
2023-04-01T19:13:11.512Z,7.90
2023-04-01T19:15:46.664Z,7.90
2023-04-01T19:18:43.046Z,7.86
2023-04-01T19:21:17.988Z,7.84
2023-04-01T19:24:16.759Z,7.82
2023-04-01T19:26:53.293Z,7.79
2023-04-01T19:29:38.748Z,7.77
2023-04-01T19:32:17.036Z,7.80
2023-04-01T19:34:58.098Z,7.82
2023-04-01T19:37:34.862Z,7.72
2023-04-01T19:40:18.438Z,7.77
2023-04-01T19:42:51.689Z,7.72
2023-04-01T19:45:32.295Z,7.66
2023-04-01T19:48:08.065Z,7.65
2023-04-01T19:50:40.492Z,7.62
2023-04-01T19:53:20.252Z,7.59
2023-04-01T19:55:57.892Z,7.49
2023-04-01T19:58:33.602Z,7.50
2023-04-01T20:01:09.374Z,7.41
2023-04-01T20:03:44.579Z,7.35
2023-04-01T20:06:24.440Z,7.33
2023-04-01T20:09:07.484Z,7.17
2023-04-01T20:11:49.264Z,7.11
2023-04-01T20:14:27.383Z,7.16
2023-04-01T20:17:03.638Z,7.18
2023-04-01T20:19:40.653Z,7.15
2023-04-01T20:22:26.469Z,7.07
2023-04-01T20:25:00.408Z,7.08
2023-04-01T20:27:33.669Z,7.02
2023-04-01T20:30:24.048Z,6.96
2023-04-01T20:33:08.561Z,6.96
2023-04-01T20:35:46.435Z,6.95
2023-04-01T20:38:32.268Z,6.98
2023-04-01T20:41:07.288Z,6.99
2023-04-01T20:43:46.358Z,7.00
2023-04-01T20:46:22.060Z,7.07
2023-04-01T20:49:17.210Z,7.00
2023-04-01T20:51:53.575Z,7.03
2023-04-01T20:54:39.317Z,7.13
2023-04-01T20:57:14.204Z,7.13
2023-04-01T21:03:15.420Z,7.16
2023-04-01T21:06:04.764Z,7.19
2023-04-01T21:08:46.154Z,7.23
2023-04-01T21:11:24.465Z,7.31
2023-04-01T21:14:06.583Z,7.32
2023-04-01T21:16:43.495Z,7.36
2023-04-01T21:19:26.520Z,7.36
2023-04-01T21:22:23.834Z,7.33
2023-04-01T21:25:12.613Z,7.35
2023-04-01T21:27:50.186Z,7.38
2023-04-01T21:30:35.611Z,7.40
2023-04-01T21:33:30.431Z,7.33
2023-04-01T21:36:06.005Z,7.39
2023-04-01T21:38:47.085Z,7.39
2023-04-01T21:41:27.659Z,7.33
2023-04-01T21:44:20.983Z,7.42
2023-04-01T21:47:21.693Z,7.35
2023-04-01T21:50:09.904Z,7.38
2023-04-01T21:53:13.461Z,7.39
2023-04-01T21:56:07.373Z,7.38
2023-04-01T21:59:12.232Z,7.38
2023-04-01T22:02:06.168Z,7.39
2023-04-01T22:04:49.596Z,7.39
2023-04-01T22:07:20.047Z,7.36
2023-04-01T22:09:57.758Z,7.35
2023-04-01T22:12:38.364Z,7.39
2023-04-01T22:15:18.241Z,7.18
2023-04-01T22:17:55.970Z,7.39
2023-04-01T22:20:30.689Z,7.31
2023-04-01T22:23:09.860Z,7.75
2023-04-01T22:25:44.644Z,8.42
2023-04-01T22:28:18.060Z,8.52
2023-04-01T22:30:54.426Z,8.71
2023-04-01T22:33:36.165Z,8.21
2023-04-01T22:36:18.547Z,7.78
2023-04-01T22:39:04.533Z,7.70
2023-04-01T22:41:52.377Z,7.63
2023-04-01T22:44:34.437Z,7.61
2023-04-01T22:47:08.786Z,7.58
2023-04-01T22:49:43.811Z,7.59
2023-04-01T22:52:18.934Z,7.51
2023-04-01T22:54:51.396Z,7.58
2023-04-01T22:57:33.697Z,7.56
2023-04-01T23:00:09.910Z,7.57
2023-04-01T23:02:41.267Z,7.56
2023-04-01T23:05:17.303Z,7.54
2023-04-01T23:07:54.171Z,7.44
2023-04-01T23:10:28.334Z,7.55
2023-04-01T23:13:00.727Z,7.46
2023-04-01T23:15:29.637Z,7.56
2023-04-01T23:18:18.867Z,7.55
2023-04-01T23:21:03.190Z,7.53
2023-04-01T23:23:41.789Z,7.53
2023-04-01T23:26:15.779Z,7.43
2023-04-01T23:28:51.040Z,7.46
2023-04-01T23:31:43.980Z,7.40
2023-04-01T23:34:33.181Z,7.40
2023-04-01T23:37:06.298Z,7.39
2023-04-01T23:39:37.824Z,7.42
2023-04-01T23:42:08.001Z,7.36
2023-04-01T23:44:38.091Z,7.39
2023-04-01T23:47:09.955Z,7.37
2023-04-01T23:49:40.903Z,7.28
2023-04-01T23:52:16.270Z,7.29
2023-04-01T23:54:50.495Z,7.38
2023-04-01T23:57:21.638Z,7.33
